Terminal Aerodrome Forecast
Issued by NWS Charleston, SC

Home | Current Version | Previous Version | Text Only | Print | Product List | Glossary On
Versions: 1 2 3 4 5 6 7 8 9 10 11 12 13 14 15 16 17 18 19 20 21 22 23 24
234
FTUS42 KCHS 180528
TAFCHS
TAF
KCHS 180528Z 1806/1906 23006KT P6SM SCT090
     FM181000 26003KT P6SM SCT015 BKN050
      TEMPO 1812/1816 5SM BR SCT008 BKN015
     FM181600 08010KT P6SM SCT025 BKN080
     FM190100 07007KT P6SM SCT015 BKN025=

USA.gov is the U.S. government's official web portal to all federal, state and local government web resources and services.